sensor_id;sensor_type;location;lat;lon;timestamp;temperature;humidity
35463;DHT22;21578;47.892;9.970;2023-03-31T00:03:51;8.30;96.60
35463;DHT22;21578;47.892;9.970;2023-03-31T00:08:46;8.30;96.60
35463;DHT22;21578;47.892;9.970;2023-03-31T00:13:36;8.30;96.60
35463;DHT22;21578;47.892;9.970;2023-03-31T00:18:23;8.30;96.60
35463;DHT22;21578;47.892;9.970;2023-03-31T00:23:12;8.30;96.60
35463;DHT22;21578;47.892;9.970;2023-03-31T00:27:59;8.30;96.60
35463;DHT22;21578;47.892;9.970;2023-03-31T00:32:45;8.30;96.60
35463;DHT22;21578;47.892;9.970;2023-03-31T00:37:32;8.20;96.60
35463;DHT22;21578;47.892;9.970;2023-03-31T00:42:21;8.20;96.60
35463;DHT22;21578;47.892;9.970;2023-03-31T00:47:12;8.30;96.60
35463;DHT22;21578;47.892;9.970;2023-03-31T00:52:02;8.30;96.60
35463;DHT22;21578;47.892;9.970;2023-03-31T00:56:51;8.30;96.60
35463;DHT22;21578;47.892;9.970;2023-03-31T01:01:43;8.30;96.60
35463;DHT22;21578;47.892;9.970;2023-03-31T01:06:31;8.30;96.60
35463;DHT22;21578;47.892;9.970;2023-03-31T01:11:21;8.40;96.60
35463;DHT22;21578;47.892;9.970;2023-03-31T01:16:09;8.40;96.60
35463;DHT22;21578;47.892;9.970;2023-03-31T01:26:47;8.50;96.60
35463;DHT22;21578;47.892;9.970;2023-03-31T01:31:58;8.50;96.60
35463;DHT22;21578;47.892;9.970;2023-03-31T01:37:18;8.50;96.60
35463;DHT22;21578;47.892;9.970;2023-03-31T01:42:13;8.50;96.60
35463;DHT22;21578;47.892;9.970;2023-03-31T01:47:07;8.50;96.60
35463;DHT22;21578;47.892;9.970;2023-03-31T01:51:58;8.50;96.60
35463;DHT22;21578;47.892;9.970;2023-03-31T01:56:49;8.50;96.60
35463;DHT22;21578;47.892;9.970;2023-03-31T02:01:41;8.60;96.60
35463;DHT22;21578;47.892;9.970;2023-03-31T02:06:34;8.60;96.60
35463;DHT22;21578;47.892;9.970;2023-03-31T02:11:24;8.70;96.60
35463;DHT22;21578;47.892;9.970;2023-03-31T02:16:18;8.50;96.60
35463;DHT22;21578;47.892;9.970;2023-03-31T02:21:11;8.40;96.60
35463;DHT22;21578;47.892;9.970;2023-03-31T02:26:01;8.30;96.60
35463;DHT22;21578;47.892;9.970;2023-03-31T02:30:59;8.40;96.60
35463;DHT22;21578;47.892;9.970;2023-03-31T02:35:48;8.40;96.60
35463;DHT22;21578;47.892;9.970;2023-03-31T02:40:37;8.50;96.60
35463;DHT22;21578;47.892;9.970;2023-03-31T02:45:42;8.40;96.60
35463;DHT22;21578;47.892;9.970;2023-03-31T02:50:35;8.40;96.60
35463;DHT22;21578;47.892;9.970;2023-03-31T02:55:49;8.30;96.60
35463;DHT22;21578;47.892;9.970;2023-03-31T03:00:55;8.30;96.60
35463;DHT22;21578;47.892;9.970;2023-03-31T03:05:48;8.40;96.60
35463;DHT22;21578;47.892;9.970;2023-03-31T03:10:43;8.40;96.60
35463;DHT22;21578;47.892;9.970;2023-03-31T03:15:36;8.40;96.60
35463;DHT22;21578;47.892;9.970;2023-03-31T03:20:26;8.40;96.60
35463;DHT22;21578;47.892;9.970;2023-03-31T03:25:14;8.40;96.60
35463;DHT22;21578;47.892;9.970;2023-03-31T03:30:09;8.30;96.60
35463;DHT22;21578;47.892;9.970;2023-03-31T03:34:58;8.20;96.60
35463;DHT22;21578;47.892;9.970;2023-03-31T03:39:45;8.20;96.60
35463;DHT22;21578;47.892;9.970;2023-03-31T03:44:32;8.20;96.60
35463;DHT22;21578;47.892;9.970;2023-03-31T03:49:19;8.20;96.60
35463;DHT22;21578;47.892;9.970;2023-03-31T03:54:07;8.20;96.60
35463;DHT22;21578;47.892;9.970;2023-03-31T03:58:54;8.10;96.60
35463;DHT22;21578;47.892;9.970;2023-03-31T04:03:42;8.00;96.60
35463;DHT22;21578;47.892;9.970;2023-03-31T04:08:29;7.90;96.60
35463;DHT22;21578;47.892;9.970;2023-03-31T04:13:18;7.90;96.60
35463;DHT22;21578;47.892;9.970;2023-03-31T04:18:05;7.90;96.60
35463;DHT22;21578;47.892;9.970;2023-03-31T04:22:55;7.80;96.60
35463;DHT22;21578;47.892;9.970;2023-03-31T04:27:42;7.70;96.60
35463;DHT22;21578;47.892;9.970;2023-03-31T04:32:32;7.70;96.60
35463;DHT22;21578;47.892;9.970;2023-03-31T04:37:21;7.70;96.60
35463;DHT22;21578;47.892;9.970;2023-03-31T04:42:12;7.70;96.60
35463;DHT22;21578;47.892;9.970;2023-03-31T04:47:00;7.70;96.60
35463;DHT22;21578;47.892;9.970;2023-03-31T04:51:49;7.60;96.60
35463;DHT22;21578;47.892;9.970;2023-03-31T04:56:36;7.60;96.60
35463;DHT22;21578;47.892;9.970;2023-03-31T05:01:23;7.60;96.60
35463;DHT22;21578;47.892;9.970;2023-03-31T05:06:10;7.60;96.60
35463;DHT22;21578;47.892;9.970;2023-03-31T05:10:59;7.60;96.60
35463;DHT22;21578;47.892;9.970;2023-03-31T05:15:46;7.60;96.60
35463;DHT22;21578;47.892;9.970;2023-03-31T05:20:35;7.60;96.60
35463;DHT22;21578;47.892;9.970;2023-03-31T05:25:22;7.70;96.60
35463;DHT22;21578;47.892;9.970;2023-03-31T05:30:11;7.70;96.60
35463;DHT22;21578;47.892;9.970;2023-03-31T05:34:58;7.70;96.60
35463;DHT22;21578;47.892;9.970;2023-03-31T05:39:44;7.80;96.60
35463;DHT22;21578;47.892;9.970;2023-03-31T05:44:31;7.80;96.60
35463;DHT22;21578;47.892;9.970;2023-03-31T05:49:20;7.90;96.60
35463;DHT22;21578;47.892;9.970;2023-03-31T05:54:07;7.90;96.60
35463;DHT22;21578;47.892;9.970;2023-03-31T05:58:54;7.90;96.60
35463;DHT22;21578;47.892;9.970;2023-03-31T06:03:41;8.00;96.60
35463;DHT22;21578;47.892;9.970;2023-03-31T06:08:29;8.00;96.60
35463;DHT22;21578;47.892;9.970;2023-03-31T06:13:16;8.10;96.60
35463;DHT22;21578;47.892;9.970;2023-03-31T06:18:03;8.00;96.60
35463;DHT22;21578;47.892;9.970;2023-03-31T06:22:54;8.10;96.60
35463;DHT22;21578;47.892;9.970;2023-03-31T06:27:43;8.20;96.60
35463;DHT22;21578;47.892;9.970;2023-03-31T06:32:30;8.10;96.60
35463;DHT22;21578;47.892;9.970;2023-03-31T06:37:16;8.00;96.60
35463;DHT22;21578;47.892;9.970;2023-03-31T06:42:03;8.10;96.60
35463;DHT22;21578;47.892;9.970;2023-03-31T06:46:53;8.10;96.60
35463;DHT22;21578;47.892;9.970;2023-03-31T06:51:40;8.10;96.60
35463;DHT22;21578;47.892;9.970;2023-03-31T06:56:26;8.20;96.60
35463;DHT22;21578;47.892;9.970;2023-03-31T07:01:13;8.30;96.60
35463;DHT22;21578;47.892;9.970;2023-03-31T07:06:02;8.40;96.60
35463;DHT22;21578;47.892;9.970;2023-03-31T07:10:51;8.40;96.60
35463;DHT22;21578;47.892;9.970;2023-03-31T07:15:39;8.50;96.60
35463;DHT22;21578;47.892;9.970;2023-03-31T07:20:26;8.60;96.60
35463;DHT22;21578;47.892;9.970;2023-03-31T07:25:16;8.80;96.60
35463;DHT22;21578;47.892;9.970;2023-03-31T07:30:05;8.90;96.60
35463;DHT22;21578;47.892;9.970;2023-03-31T07:34:53;9.10;96.60
35463;DHT22;21578;47.892;9.970;2023-03-31T07:39:40;9.50;96.60
35463;DHT22;21578;47.892;9.970;2023-03-31T07:44:28;9.80;96.60
35463;DHT22;21578;47.892;9.970;2023-03-31T07:49:15;10.00;96.60
35463;DHT22;21578;47.892;9.970;2023-03-31T07:54:03;10.20;96.60
35463;DHT22;21578;47.892;9.970;2023-03-31T07:58:50;10.20;96.60
35463;DHT22;21578;47.892;9.970;2023-03-31T08:03:42;10.00;96.60
35463;DHT22;21578;47.892;9.970;2023-03-31T08:08:29;9.80;96.60
35463;DHT22;21578;47.892;9.970;2023-03-31T08:13:16;9.70;96.60
35463;DHT22;21578;47.892;9.970;2023-03-31T08:18:03;9.40;96.60
35463;DHT22;21578;47.892;9.970;2023-03-31T08:22:51;9.20;96.60
35463;DHT22;21578;47.892;9.970;2023-03-31T08:27:39;9.20;96.60
35463;DHT22;21578;47.892;9.970;2023-03-31T08:32:26;9.30;96.60
35463;DHT22;21578;47.892;9.970;2023-03-31T08:37:13;9.50;96.60
35463;DHT22;21578;47.892;9.970;2023-03-31T08:42:04;9.90;96.60
35463;DHT22;21578;47.892;9.970;2023-03-31T08:46:54;10.00;96.60
35463;DHT22;21578;47.892;9.970;2023-03-31T08:51:46;10.20;96.60
35463;DHT22;21578;47.892;9.970;2023-03-31T08:56:35;10.40;96.60
35463;DHT22;21578;47.892;9.970;2023-03-31T09:01:32;10.60;96.60
35463;DHT22;21578;47.892;9.970;2023-03-31T09:06:25;10.60;96.60
35463;DHT22;21578;47.892;9.970;2023-03-31T09:11:17;10.70;96.60
35463;DHT22;21578;47.892;9.970;2023-03-31T09:16:13;10.80;96.60
35463;DHT22;21578;47.892;9.970;2023-03-31T09:21:07;10.80;96.60
35463;DHT22;21578;47.892;9.970;2023-03-31T09:25:58;10.80;96.60
35463;DHT22;21578;47.892;9.970;2023-03-31T09:30:48;10.80;96.60
35463;DHT22;21578;47.892;9.970;2023-03-31T09:35:36;10.90;96.60
35463;DHT22;21578;47.892;9.970;2023-03-31T09:40:26;10.90;96.60
35463;DHT22;21578;47.892;9.970;2023-03-31T09:45:15;10.80;96.60
35463;DHT22;21578;47.892;9.970;2023-03-31T09:50:03;11.00;96.60
35463;DHT22;21578;47.892;9.970;2023-03-31T09:54:52;10.90;96.60
35463;DHT22;21578;47.892;9.970;2023-03-31T09:59:42;10.90;96.60
35463;DHT22;21578;47.892;9.970;2023-03-31T10:04:33;11.00;96.60
35463;DHT22;21578;47.892;9.970;2023-03-31T10:09:23;11.10;96.60
35463;DHT22;21578;47.892;9.970;2023-03-31T10:14:13;11.00;96.60
35463;DHT22;21578;47.892;9.970;2023-03-31T10:19:20;10.80;96.60
35463;DHT22;21578;47.892;9.970;2023-03-31T10:24:08;10.20;96.60
35463;DHT22;21578;47.892;9.970;2023-03-31T10:28:55;9.60;96.60
35463;DHT22;21578;47.892;9.970;2023-03-31T10:33:45;9.30;96.60
35463;DHT22;21578;47.892;9.970;2023-03-31T10:38:36;9.10;96.60
35463;DHT22;21578;47.892;9.970;2023-03-31T10:43:26;9.10;96.60
35463;DHT22;21578;47.892;9.970;2023-03-31T10:48:19;9.10;96.60
35463;DHT22;21578;47.892;9.970;2023-03-31T10:53:11;9.10;96.60
35463;DHT22;21578;47.892;9.970;2023-03-31T10:58:05;9.10;96.60
35463;DHT22;21578;47.892;9.970;2023-03-31T11:03:15;9.10;96.60
35463;DHT22;21578;47.892;9.970;2023-03-31T11:08:26;9.20;96.60
35463;DHT22;21578;47.892;9.970;2023-03-31T11:13:21;9.40;96.60
35463;DHT22;21578;47.892;9.970;2023-03-31T11:23:36;10.30;96.60
35463;DHT22;21578;47.892;9.970;2023-03-31T11:28:54;10.60;96.60
35463;DHT22;21578;47.892;9.970;2023-03-31T11:34:03;10.80;96.60
35463;DHT22;21578;47.892;9.970;2023-03-31T11:38:59;10.90;96.60
35463;DHT22;21578;47.892;9.970;2023-03-31T11:43:52;10.90;96.60
35463;DHT22;21578;47.892;9.970;2023-03-31T11:48:43;10.80;96.60
35463;DHT22;21578;47.892;9.970;2023-03-31T11:53:33;10.60;96.60
35463;DHT22;21578;47.892;9.970;2023-03-31T11:58:25;10.40;96.60
35463;DHT22;21578;47.892;9.970;2023-03-31T12:03:21;10.10;93.80
35463;DHT22;21578;47.892;9.970;2023-03-31T12:08:12;9.90;90.60
35463;DHT22;21578;47.892;9.970;2023-03-31T12:13:06;9.80;89.80
35463;DHT22;21578;47.892;9.970;2023-03-31T12:18:00;9.70;91.00
35463;DHT22;21578;47.892;9.970;2023-03-31T12:22:50;9.60;93.00
35463;DHT22;21578;47.892;9.970;2023-03-31T12:27:39;9.60;94.00
35463;DHT22;21578;47.892;9.970;2023-03-31T12:32:28;9.90;93.80
35463;DHT22;21578;47.892;9.970;2023-03-31T12:37:34;10.70;90.30
35463;DHT22;21578;47.892;9.970;2023-03-31T12:42:41;11.50;87.50
35463;DHT22;21578;47.892;9.970;2023-03-31T12:47:48;12.10;85.50
35463;DHT22;21578;47.892;9.970;2023-03-31T12:52:43;12.40;85.00
35463;DHT22;21578;47.892;9.970;2023-03-31T12:57:32;12.60;83.10
35463;DHT22;21578;47.892;9.970;2023-03-31T13:02:24;12.90;81.80
35463;DHT22;21578;47.892;9.970;2023-03-31T13:07:13;13.40;83.40
35463;DHT22;21578;47.892;9.970;2023-03-31T13:12:21;13.10;83.20
35463;DHT22;21578;47.892;9.970;2023-03-31T13:17:23;12.70;82.70
35463;DHT22;21578;47.892;9.970;2023-03-31T13:22:28;12.40;85.20
35463;DHT22;21578;47.892;9.970;2023-03-31T13:27:30;11.80;94.50
35463;DHT22;21578;47.892;9.970;2023-03-31T13:32:20;10.70;96.60
35463;DHT22;21578;47.892;9.970;2023-03-31T13:37:16;8.80;96.60
35463;DHT22;21578;47.892;9.970;2023-03-31T13:42:19;8.00;96.60
35463;DHT22;21578;47.892;9.970;2023-03-31T13:47:38;8.00;96.60
35463;DHT22;21578;47.892;9.970;2023-03-31T13:52:38;8.50;96.60
35463;DHT22;21578;47.892;9.970;2023-03-31T14:03:04;9.80;96.60
35463;DHT22;21578;47.892;9.970;2023-03-31T14:07:56;10.40;96.60
35463;DHT22;21578;47.892;9.970;2023-03-31T14:12:44;10.80;96.60
35463;DHT22;21578;47.892;9.970;2023-03-31T14:17:36;11.20;96.60
35463;DHT22;21578;47.892;9.970;2023-03-31T14:22:32;11.30;96.40
35463;DHT22;21578;47.892;9.970;2023-03-31T14:27:40;10.90;96.00
35463;DHT22;21578;47.892;9.970;2023-03-31T14:32:34;10.60;95.20
35463;DHT22;21578;47.892;9.970;2023-03-31T14:37:23;10.40;95.90
35463;DHT22;21578;47.892;9.970;2023-03-31T14:42:13;10.20;96.60
35463;DHT22;21578;47.892;9.970;2023-03-31T14:47:04;10.20;96.60
35463;DHT22;21578;47.892;9.970;2023-03-31T14:51:52;10.30;95.90
35463;DHT22;21578;47.892;9.970;2023-03-31T14:56:40;10.50;94.50
35463;DHT22;21578;47.892;9.970;2023-03-31T15:01:31;10.40;94.30
35463;DHT22;21578;47.892;9.970;2023-03-31T15:06:23;10.40;96.50
35463;DHT22;21578;47.892;9.970;2023-03-31T15:11:14;10.30;94.90
35463;DHT22;21578;47.892;9.970;2023-03-31T15:16:25;10.30;96.40
35463;DHT22;21578;47.892;9.970;2023-03-31T15:21:21;10.30;96.60
35463;DHT22;21578;47.892;9.970;2023-03-31T15:26:09;10.30;96.60
35463;DHT22;21578;47.892;9.970;2023-03-31T15:30:56;10.30;96.60
35463;DHT22;21578;47.892;9.970;2023-03-31T15:35:44;10.30;96.60
35463;DHT22;21578;47.892;9.970;2023-03-31T15:40:35;10.30;96.60
35463;DHT22;21578;47.892;9.970;2023-03-31T15:45:46;10.20;96.60
35463;DHT22;21578;47.892;9.970;2023-03-31T15:50:35;10.00;96.60
35463;DHT22;21578;47.892;9.970;2023-03-31T15:55:25;9.80;96.60
35463;DHT22;21578;47.892;9.970;2023-03-31T16:00:40;9.30;96.60
35463;DHT22;21578;47.892;9.970;2023-03-31T16:05:34;7.60;96.60
35463;DHT22;21578;47.892;9.970;2023-03-31T16:10:39;7.00;96.60
35463;DHT22;21578;47.892;9.970;2023-03-31T16:15:31;6.80;96.60
35463;DHT22;21578;47.892;9.970;2023-03-31T16:20:34;6.70;96.60
35463;DHT22;21578;47.892;9.970;2023-03-31T16:25:24;6.80;96.60
35463;DHT22;21578;47.892;9.970;2023-03-31T16:30:15;6.80;96.60
35463;DHT22;21578;47.892;9.970;2023-03-31T16:35:04;6.90;96.60
35463;DHT22;21578;47.892;9.970;2023-03-31T16:39:51;7.00;96.60
35463;DHT22;21578;47.892;9.970;2023-03-31T16:44:40;7.10;96.60
35463;DHT22;21578;47.892;9.970;2023-03-31T16:49:29;7.20;96.60
35463;DHT22;21578;47.892;9.970;2023-03-31T16:54:16;7.30;96.60
35463;DHT22;21578;47.892;9.970;2023-03-31T16:59:03;7.30;96.60
35463;DHT22;21578;47.892;9.970;2023-03-31T17:03:52;7.40;96.60
35463;DHT22;21578;47.892;9.970;2023-03-31T17:08:40;7.40;96.60
35463;DHT22;21578;47.892;9.970;2023-03-31T17:13:27;7.30;96.60
35463;DHT22;21578;47.892;9.970;2023-03-31T17:18:15;7.30;96.60
35463;DHT22;21578;47.892;9.970;2023-03-31T17:23:02;7.20;96.60
35463;DHT22;21578;47.892;9.970;2023-03-31T17:27:50;7.10;96.60
35463;DHT22;21578;47.892;9.970;2023-03-31T17:32:37;7.10;96.60
35463;DHT22;21578;47.892;9.970;2023-03-31T17:37:24;7.10;96.60
35463;DHT22;21578;47.892;9.970;2023-03-31T17:42:12;7.00;96.60
35463;DHT22;21578;47.892;9.970;2023-03-31T17:47:00;7.10;96.60
35463;DHT22;21578;47.892;9.970;2023-03-31T17:51:47;7.00;96.60
35463;DHT22;21578;47.892;9.970;2023-03-31T17:56:34;7.00;96.60
35463;DHT22;21578;47.892;9.970;2023-03-31T18:01:21;7.00;96.60
35463;DHT22;21578;47.892;9.970;2023-03-31T18:06:11;7.00;96.60
35463;DHT22;21578;47.892;9.970;2023-03-31T18:10:59;6.90;96.60
35463;DHT22;21578;47.892;9.970;2023-03-31T18:15:48;6.90;96.60
35463;DHT22;21578;47.892;9.970;2023-03-31T18:20:37;6.90;96.60
35463;DHT22;21578;47.892;9.970;2023-03-31T18:25:25;7.00;96.60
35463;DHT22;21578;47.892;9.970;2023-03-31T18:30:13;6.90;96.60
35463;DHT22;21578;47.892;9.970;2023-03-31T18:35:01;6.80;96.60
35463;DHT22;21578;47.892;9.970;2023-03-31T18:39:48;6.80;96.60
35463;DHT22;21578;47.892;9.970;2023-03-31T18:44:36;6.80;96.60
35463;DHT22;21578;47.892;9.970;2023-03-31T18:49:24;6.80;96.60
35463;DHT22;21578;47.892;9.970;2023-03-31T18:54:11;6.80;96.60
35463;DHT22;21578;47.892;9.970;2023-03-31T18:58:58;6.90;96.60
35463;DHT22;21578;47.892;9.970;2023-03-31T19:03:48;6.90;96.60
35463;DHT22;21578;47.892;9.970;2023-03-31T19:08:36;6.80;96.60
35463;DHT22;21578;47.892;9.970;2023-03-31T19:13:23;6.90;96.60
35463;DHT22;21578;47.892;9.970;2023-03-31T19:18:13;6.80;96.60
35463;DHT22;21578;47.892;9.970;2023-03-31T19:23:01;6.90;96.60
35463;DHT22;21578;47.892;9.970;2023-03-31T19:27:48;7.00;96.60
35463;DHT22;21578;47.892;9.970;2023-03-31T19:32:36;6.90;96.60
35463;DHT22;21578;47.892;9.970;2023-03-31T19:37:23;7.00;96.60
35463;DHT22;21578;47.892;9.970;2023-03-31T19:42:11;7.00;96.60
35463;DHT22;21578;47.892;9.970;2023-03-31T19:46:59;7.00;96.60
35463;DHT22;21578;47.892;9.970;2023-03-31T19:51:46;7.10;96.60
35463;DHT22;21578;47.892;9.970;2023-03-31T19:56:33;7.10;96.60
35463;DHT22;21578;47.892;9.970;2023-03-31T20:01:23;7.00;96.60
35463;DHT22;21578;47.892;9.970;2023-03-31T20:06:12;7.00;96.60
35463;DHT22;21578;47.892;9.970;2023-03-31T20:10:59;7.10;96.60
35463;DHT22;21578;47.892;9.970;2023-03-31T20:15:46;7.00;96.60
35463;DHT22;21578;47.892;9.970;2023-03-31T20:20:34;7.00;96.60
35463;DHT22;21578;47.892;9.970;2023-03-31T20:25:22;7.00;96.60
35463;DHT22;21578;47.892;9.970;2023-03-31T20:30:10;6.90;96.60
35463;DHT22;21578;47.892;9.970;2023-03-31T20:34:57;6.80;96.60
35463;DHT22;21578;47.892;9.970;2023-03-31T20:39:46;6.80;96.60
35463;DHT22;21578;47.892;9.970;2023-03-31T20:44:33;6.80;96.60
35463;DHT22;21578;47.892;9.970;2023-03-31T20:49:20;6.80;96.60
35463;DHT22;21578;47.892;9.970;2023-03-31T20:54:07;6.70;96.60
35463;DHT22;21578;47.892;9.970;2023-03-31T20:58:56;6.70;96.60
35463;DHT22;21578;47.892;9.970;2023-03-31T21:03:45;6.70;96.60
35463;DHT22;21578;47.892;9.970;2023-03-31T21:08:32;6.70;96.60
35463;DHT22;21578;47.892;9.970;2023-03-31T21:13:19;6.60;96.60
35463;DHT22;21578;47.892;9.970;2023-03-31T21:18:07;6.70;96.60
35463;DHT22;21578;47.892;9.970;2023-03-31T21:22:55;6.70;96.60
35463;DHT22;21578;47.892;9.970;2023-03-31T21:27:42;6.60;96.60
35463;DHT22;21578;47.892;9.970;2023-03-31T21:32:28;6.60;96.60
35463;DHT22;21578;47.892;9.970;2023-03-31T21:37:17;6.60;96.60
35463;DHT22;21578;47.892;9.970;2023-03-31T21:42:04;6.60;96.60
35463;DHT22;21578;47.892;9.970;2023-03-31T21:46:51;6.60;96.60
35463;DHT22;21578;47.892;9.970;2023-03-31T21:51:38;6.60;96.60
35463;DHT22;21578;47.892;9.970;2023-03-31T21:56:27;6.50;96.60
35463;DHT22;21578;47.892;9.970;2023-03-31T22:01:14;6.60;96.60
35463;DHT22;21578;47.892;9.970;2023-03-31T22:06:02;6.50;96.60
35463;DHT22;21578;47.892;9.970;2023-03-31T22:10:49;6.50;96.60
35463;DHT22;21578;47.892;9.970;2023-03-31T22:15:40;6.50;96.60
35463;DHT22;21578;47.892;9.970;2023-03-31T22:20:27;6.50;96.60
35463;DHT22;21578;47.892;9.970;2023-03-31T22:25:14;6.40;96.60
35463;DHT22;21578;47.892;9.970;2023-03-31T22:30:02;6.50;96.60
35463;DHT22;21578;47.892;9.970;2023-03-31T22:34:50;6.50;96.60
35463;DHT22;21578;47.892;9.970;2023-03-31T22:39:37;6.40;96.60
35463;DHT22;21578;47.892;9.970;2023-03-31T22:44:24;6.50;96.60
35463;DHT22;21578;47.892;9.970;2023-03-31T22:49:11;6.40;96.60
35463;DHT22;21578;47.892;9.970;2023-03-31T22:53:59;6.40;96.60
35463;DHT22;21578;47.892;9.970;2023-03-31T22:58:46;6.30;96.60
35463;DHT22;21578;47.892;9.970;2023-03-31T23:03:34;6.30;96.60
35463;DHT22;21578;47.892;9.970;2023-03-31T23:08:21;6.40;96.60
35463;DHT22;21578;47.892;9.970;2023-03-31T23:13:09;6.30;96.60
35463;DHT22;21578;47.892;9.970;2023-03-31T23:17:56;6.30;96.60
35463;DHT22;21578;47.892;9.970;2023-03-31T23:22:43;6.30;96.60
35463;DHT22;21578;47.892;9.970;2023-03-31T23:27:31;6.30;96.60
35463;DHT22;21578;47.892;9.970;2023-03-31T23:32:19;6.40;96.60
35463;DHT22;21578;47.892;9.970;2023-03-31T23:37:06;6.40;96.60
35463;DHT22;21578;47.892;9.970;2023-03-31T23:41:54;6.40;96.60
35463;DHT22;21578;47.892;9.970;2023-03-31T23:46:41;6.50;96.60
35463;DHT22;21578;47.892;9.970;2023-03-31T23:51:30;6.50;96.60
35463;DHT22;21578;47.892;9.970;2023-03-31T23:56:17;6.50;96.60
